sensor_id;sensor_type;location;lat;lon;timestamp;temperature;humidity
34095;DHT22;20372;47.080;15.410;2023-06-22T00:01:09;20.80;99.90
34095;DHT22;20372;47.080;15.410;2023-06-22T00:03:34;20.90;99.90
34095;DHT22;20372;47.080;15.410;2023-06-22T00:06:00;20.90;99.90
34095;DHT22;20372;47.080;15.410;2023-06-22T00:08:25;21.00;99.90
34095;DHT22;20372;47.080;15.410;2023-06-22T00:10:51;21.00;99.90
34095;DHT22;20372;47.080;15.410;2023-06-22T00:13:16;21.00;99.90
34095;DHT22;20372;47.080;15.410;2023-06-22T00:15:43;20.90;99.90
34095;DHT22;20372;47.080;15.410;2023-06-22T00:18:09;20.90;99.90
34095;DHT22;20372;47.080;15.410;2023-06-22T00:20:35;20.80;99.90
34095;DHT22;20372;47.080;15.410;2023-06-22T00:23:05;20.80;99.90
34095;DHT22;20372;47.080;15.410;2023-06-22T00:25:34;20.70;99.90
34095;DHT22;20372;47.080;15.410;2023-06-22T00:28:01;20.70;99.90
34095;DHT22;20372;47.080;15.410;2023-06-22T00:30:27;20.70;99.90
34095;DHT22;20372;47.080;15.410;2023-06-22T00:32:52;20.60;99.90
34095;DHT22;20372;47.080;15.410;2023-06-22T00:35:18;20.60;99.90
34095;DHT22;20372;47.080;15.410;2023-06-22T00:37:43;20.70;99.90
34095;DHT22;20372;47.080;15.410;2023-06-22T00:40:09;20.70;99.90
34095;DHT22;20372;47.080;15.410;2023-06-22T00:42:39;20.80;99.90
34095;DHT22;20372;47.080;15.410;2023-06-22T00:45:05;20.80;99.90
34095;DHT22;20372;47.080;15.410;2023-06-22T00:47:31;20.80;99.90
34095;DHT22;20372;47.080;15.410;2023-06-22T00:49:57;20.70;99.90
34095;DHT22;20372;47.080;15.410;2023-06-22T00:52:23;20.70;99.90
34095;DHT22;20372;47.080;15.410;2023-06-22T00:54:54;20.50;99.90
34095;DHT22;20372;47.080;15.410;2023-06-22T00:57:20;20.40;99.90
34095;DHT22;20372;47.080;15.410;2023-06-22T00:59:47;20.40;99.90
34095;DHT22;20372;47.080;15.410;2023-06-22T01:02:13;20.40;99.90
34095;DHT22;20372;47.080;15.410;2023-06-22T01:04:39;20.50;99.90
34095;DHT22;20372;47.080;15.410;2023-06-22T01:09:32;20.50;99.90
34095;DHT22;20372;47.080;15.410;2023-06-22T01:12:03;20.50;99.90
34095;DHT22;20372;47.080;15.410;2023-06-22T01:17:03;20.50;99.90
34095;DHT22;20372;47.080;15.410;2023-06-22T01:22:24;20.50;99.90
34095;DHT22;20372;47.080;15.410;2023-06-22T01:27:32;20.40;99.90
34095;DHT22;20372;47.080;15.410;2023-06-22T01:29:58;20.20;99.90
34095;DHT22;20372;47.080;15.410;2023-06-22T01:32:32;20.20;99.90
34095;DHT22;20372;47.080;15.410;2023-06-22T01:35:03;20.20;99.90
34095;DHT22;20372;47.080;15.410;2023-06-22T01:37:29;20.10;99.90
34095;DHT22;20372;47.080;15.410;2023-06-22T01:39:57;20.10;99.90
34095;DHT22;20372;47.080;15.410;2023-06-22T01:42:23;20.00;99.90
34095;DHT22;20372;47.080;15.410;2023-06-22T01:44:50;20.00;99.90
34095;DHT22;20372;47.080;15.410;2023-06-22T01:47:16;20.00;99.90
34095;DHT22;20372;47.080;15.410;2023-06-22T01:49:42;20.00;99.90
34095;DHT22;20372;47.080;15.410;2023-06-22T01:52:08;20.00;99.90
34095;DHT22;20372;47.080;15.410;2023-06-22T01:54:34;19.90;99.90
34095;DHT22;20372;47.080;15.410;2023-06-22T01:57:00;19.90;99.90
34095;DHT22;20372;47.080;15.410;2023-06-22T01:59:28;19.90;99.90
34095;DHT22;20372;47.080;15.410;2023-06-22T02:01:57;19.90;99.90
34095;DHT22;20372;47.080;15.410;2023-06-22T02:04:26;19.90;99.90
34095;DHT22;20372;47.080;15.410;2023-06-22T02:06:54;19.90;99.90
34095;DHT22;20372;47.080;15.410;2023-06-22T02:09:21;19.90;99.90
34095;DHT22;20372;47.080;15.410;2023-06-22T02:11:47;19.90;99.90
34095;DHT22;20372;47.080;15.410;2023-06-22T02:14:17;19.90;99.90
34095;DHT22;20372;47.080;15.410;2023-06-22T02:16:43;19.80;99.90
34095;DHT22;20372;47.080;15.410;2023-06-22T02:19:09;19.90;99.90
34095;DHT22;20372;47.080;15.410;2023-06-22T02:21:35;19.80;99.90
34095;DHT22;20372;47.080;15.410;2023-06-22T02:24:00;19.80;99.90
34095;DHT22;20372;47.080;15.410;2023-06-22T02:26:26;19.70;99.90
34095;DHT22;20372;47.080;15.410;2023-06-22T02:28:52;19.70;99.90
34095;DHT22;20372;47.080;15.410;2023-06-22T02:31:18;19.70;99.90
34095;DHT22;20372;47.080;15.410;2023-06-22T02:33:45;19.70;99.90
34095;DHT22;20372;47.080;15.410;2023-06-22T02:36:11;19.70;99.90
34095;DHT22;20372;47.080;15.410;2023-06-22T02:38:40;19.70;99.90
34095;DHT22;20372;47.080;15.410;2023-06-22T02:41:05;19.70;99.90
34095;DHT22;20372;47.080;15.410;2023-06-22T02:43:31;19.60;99.90
34095;DHT22;20372;47.080;15.410;2023-06-22T02:45:57;19.50;99.90
34095;DHT22;20372;47.080;15.410;2023-06-22T02:48:23;19.50;99.90
34095;DHT22;20372;47.080;15.410;2023-06-22T02:50:48;19.60;99.90
34095;DHT22;20372;47.080;15.410;2023-06-22T02:53:14;19.60;99.90
34095;DHT22;20372;47.080;15.410;2023-06-22T02:55:39;19.50;99.90
34095;DHT22;20372;47.080;15.410;2023-06-22T02:58:05;19.50;99.90
34095;DHT22;20372;47.080;15.410;2023-06-22T03:00:31;19.60;99.90
34095;DHT22;20372;47.080;15.410;2023-06-22T03:02:57;19.70;99.90
34095;DHT22;20372;47.080;15.410;2023-06-22T03:05:23;19.60;99.90
34095;DHT22;20372;47.080;15.410;2023-06-22T03:07:48;19.60;99.90
34095;DHT22;20372;47.080;15.410;2023-06-22T03:10:14;19.70;99.90
34095;DHT22;20372;47.080;15.410;2023-06-22T03:12:40;19.70;99.90
34095;DHT22;20372;47.080;15.410;2023-06-22T03:15:07;19.80;99.90
34095;DHT22;20372;47.080;15.410;2023-06-22T03:17:33;20.10;99.90
34095;DHT22;20372;47.080;15.410;2023-06-22T03:19:59;20.20;99.90
34095;DHT22;20372;47.080;15.410;2023-06-22T03:22:24;20.30;99.90
34095;DHT22;20372;47.080;15.410;2023-06-22T03:24:50;20.30;99.90
34095;DHT22;20372;47.080;15.410;2023-06-22T03:27:16;20.40;99.90
34095;DHT22;20372;47.080;15.410;2023-06-22T03:29:41;20.40;99.90
34095;DHT22;20372;47.080;15.410;2023-06-22T03:32:07;20.40;99.90
34095;DHT22;20372;47.080;15.410;2023-06-22T03:34:33;20.40;99.90
34095;DHT22;20372;47.080;15.410;2023-06-22T03:36:59;20.40;99.90
34095;DHT22;20372;47.080;15.410;2023-06-22T03:39:25;20.50;99.90
34095;DHT22;20372;47.080;15.410;2023-06-22T03:41:50;20.50;99.90
34095;DHT22;20372;47.080;15.410;2023-06-22T03:44:16;20.50;99.90
34095;DHT22;20372;47.080;15.410;2023-06-22T03:46:42;20.60;99.90
34095;DHT22;20372;47.080;15.410;2023-06-22T03:49:07;20.60;99.90
34095;DHT22;20372;47.080;15.410;2023-06-22T03:51:33;20.60;99.90
34095;DHT22;20372;47.080;15.410;2023-06-22T03:53:58;20.70;99.90
34095;DHT22;20372;47.080;15.410;2023-06-22T03:56:24;20.70;99.90
34095;DHT22;20372;47.080;15.410;2023-06-22T03:58:49;20.70;99.90
34095;DHT22;20372;47.080;15.410;2023-06-22T04:01:15;20.50;99.90
34095;DHT22;20372;47.080;15.410;2023-06-22T04:03:42;20.50;99.90
34095;DHT22;20372;47.080;15.410;2023-06-22T04:06:08;20.50;99.90
34095;DHT22;20372;47.080;15.410;2023-06-22T04:08:33;20.50;99.90
34095;DHT22;20372;47.080;15.410;2023-06-22T04:10:59;20.40;99.90
34095;DHT22;20372;47.080;15.410;2023-06-22T04:13:25;20.40;99.90
34095;DHT22;20372;47.080;15.410;2023-06-22T04:15:50;20.40;99.90
34095;DHT22;20372;47.080;15.410;2023-06-22T04:18:16;20.40;99.90
34095;DHT22;20372;47.080;15.410;2023-06-22T04:20:41;20.40;99.90
34095;DHT22;20372;47.080;15.410;2023-06-22T04:23:07;20.50;99.90
34095;DHT22;20372;47.080;15.410;2023-06-22T04:25:33;20.70;99.90
34095;DHT22;20372;47.080;15.410;2023-06-22T04:27:59;20.80;99.90
34095;DHT22;20372;47.080;15.410;2023-06-22T04:30:24;20.90;99.90
34095;DHT22;20372;47.080;15.410;2023-06-22T04:32:50;21.00;99.90
34095;DHT22;20372;47.080;15.410;2023-06-22T04:35:22;21.00;99.90
34095;DHT22;20372;47.080;15.410;2023-06-22T04:37:48;21.00;99.90
34095;DHT22;20372;47.080;15.410;2023-06-22T04:40:15;21.00;99.90
34095;DHT22;20372;47.080;15.410;2023-06-22T04:42:41;21.00;99.90
34095;DHT22;20372;47.080;15.410;2023-06-22T04:45:18;21.10;99.90
34095;DHT22;20372;47.080;15.410;2023-06-22T04:47:44;21.10;99.90
34095;DHT22;20372;47.080;15.410;2023-06-22T04:50:13;21.10;99.90
34095;DHT22;20372;47.080;15.410;2023-06-22T04:52:39;21.10;99.90
34095;DHT22;20372;47.080;15.410;2023-06-22T04:55:05;21.20;99.90
34095;DHT22;20372;47.080;15.410;2023-06-22T04:57:31;21.30;99.90
34095;DHT22;20372;47.080;15.410;2023-06-22T05:00:00;21.30;99.90
34095;DHT22;20372;47.080;15.410;2023-06-22T05:02:38;21.50;99.90
34095;DHT22;20372;47.080;15.410;2023-06-22T05:05:04;21.50;99.90
34095;DHT22;20372;47.080;15.410;2023-06-22T05:07:35;21.50;99.90
34095;DHT22;20372;47.080;15.410;2023-06-22T05:10:02;21.60;99.90
34095;DHT22;20372;47.080;15.410;2023-06-22T05:12:28;21.70;99.90
34095;DHT22;20372;47.080;15.410;2023-06-22T05:14:54;21.70;99.90
34095;DHT22;20372;47.080;15.410;2023-06-22T05:17:20;22.00;99.90
34095;DHT22;20372;47.080;15.410;2023-06-22T05:19:46;22.10;99.90
34095;DHT22;20372;47.080;15.410;2023-06-22T05:22:15;22.10;99.90
34095;DHT22;20372;47.080;15.410;2023-06-22T05:24:41;22.30;99.90
34095;DHT22;20372;47.080;15.410;2023-06-22T05:27:07;22.80;99.90
34095;DHT22;20372;47.080;15.410;2023-06-22T05:29:32;23.10;99.90
34095;DHT22;20372;47.080;15.410;2023-06-22T05:31:58;23.30;99.90
34095;DHT22;20372;47.080;15.410;2023-06-22T05:34:23;23.60;99.90
34095;DHT22;20372;47.080;15.410;2023-06-22T05:36:49;24.00;99.90
34095;DHT22;20372;47.080;15.410;2023-06-22T05:39:15;24.00;99.90
34095;DHT22;20372;47.080;15.410;2023-06-22T05:41:41;24.30;99.90
34095;DHT22;20372;47.080;15.410;2023-06-22T05:44:08;24.70;99.90
34095;DHT22;20372;47.080;15.410;2023-06-22T05:46:34;25.10;99.90
34095;DHT22;20372;47.080;15.410;2023-06-22T05:48:59;25.50;99.90
34095;DHT22;20372;47.080;15.410;2023-06-22T05:51:25;25.20;99.90
34095;DHT22;20372;47.080;15.410;2023-06-22T05:53:50;25.60;99.90
34095;DHT22;20372;47.080;15.410;2023-06-22T05:56:16;25.50;99.90
34095;DHT22;20372;47.080;15.410;2023-06-22T05:58:42;26.00;99.90
34095;DHT22;20372;47.080;15.410;2023-06-22T06:01:07;26.40;99.90
34095;DHT22;20372;47.080;15.410;2023-06-22T06:03:33;26.30;99.80
34095;DHT22;20372;47.080;15.410;2023-06-22T06:05:59;26.10;99.90
34095;DHT22;20372;47.080;15.410;2023-06-22T06:08:24;26.60;99.90
34095;DHT22;20372;47.080;15.410;2023-06-22T06:10:50;27.00;99.90
34095;DHT22;20372;47.080;15.410;2023-06-22T06:13:18;27.20;99.90
34095;DHT22;20372;47.080;15.410;2023-06-22T06:15:43;27.50;99.90
34095;DHT22;20372;47.080;15.410;2023-06-22T06:18:09;27.20;99.00
34095;DHT22;20372;47.080;15.410;2023-06-22T06:20:35;27.10;99.90
34095;DHT22;20372;47.080;15.410;2023-06-22T06:23:01;27.20;98.00
34095;DHT22;20372;47.080;15.410;2023-06-22T06:25:27;27.10;99.60
34095;DHT22;20372;47.080;15.410;2023-06-22T06:27:52;26.70;98.50
34095;DHT22;20372;47.080;15.410;2023-06-22T06:30:19;26.80;98.70
34095;DHT22;20372;47.080;15.410;2023-06-22T06:32:45;26.30;98.60
34095;DHT22;20372;47.080;15.410;2023-06-22T06:35:12;26.50;99.50
34095;DHT22;20372;47.080;15.410;2023-06-22T06:37:39;27.30;97.90
34095;DHT22;20372;47.080;15.410;2023-06-22T06:40:05;27.60;97.20
34095;DHT22;20372;47.080;15.410;2023-06-22T06:42:37;27.70;96.20
34095;DHT22;20372;47.080;15.410;2023-06-22T06:45:06;27.60;97.00
34095;DHT22;20372;47.080;15.410;2023-06-22T06:47:32;28.10;98.40
34095;DHT22;20372;47.080;15.410;2023-06-22T06:49:57;28.10;95.20
34095;DHT22;20372;47.080;15.410;2023-06-22T06:52:23;27.60;96.50
34095;DHT22;20372;47.080;15.410;2023-06-22T06:54:48;28.00;96.10
34095;DHT22;20372;47.080;15.410;2023-06-22T06:57:14;27.90;96.70
34095;DHT22;20372;47.080;15.410;2023-06-22T06:59:40;28.00;96.20
34095;DHT22;20372;47.080;15.410;2023-06-22T07:02:07;27.90;96.40
34095;DHT22;20372;47.080;15.410;2023-06-22T07:04:33;28.30;96.30
34095;DHT22;20372;47.080;15.410;2023-06-22T07:07:00;28.80;95.20
34095;DHT22;20372;47.080;15.410;2023-06-22T07:09:26;28.70;95.50
34095;DHT22;20372;47.080;15.410;2023-06-22T07:11:53;29.10;94.90
34095;DHT22;20372;47.080;15.410;2023-06-22T07:14:19;29.80;93.90
34095;DHT22;20372;47.080;15.410;2023-06-22T07:16:45;29.80;93.90
34095;DHT22;20372;47.080;15.410;2023-06-22T07:19:13;29.40;93.30
34095;DHT22;20372;47.080;15.410;2023-06-22T07:21:39;29.70;93.70
34095;DHT22;20372;47.080;15.410;2023-06-22T07:24:07;30.10;92.40
34095;DHT22;20372;47.080;15.410;2023-06-22T07:26:33;30.40;92.90
34095;DHT22;20372;47.080;15.410;2023-06-22T07:28:59;30.50;92.10
34095;DHT22;20372;47.080;15.410;2023-06-22T07:31:25;30.80;94.30
34095;DHT22;20372;47.080;15.410;2023-06-22T07:33:51;30.50;91.30
34095;DHT22;20372;47.080;15.410;2023-06-22T07:36:17;30.50;90.70
34095;DHT22;20372;47.080;15.410;2023-06-22T07:38:43;30.20;91.00
34095;DHT22;20372;47.080;15.410;2023-06-22T07:41:08;30.70;91.90
34095;DHT22;20372;47.080;15.410;2023-06-22T07:43:34;30.60;92.90
34095;DHT22;20372;47.080;15.410;2023-06-22T07:46:05;31.00;91.40
34095;DHT22;20372;47.080;15.410;2023-06-22T07:48:31;30.60;90.60
34095;DHT22;20372;47.080;15.410;2023-06-22T07:50:57;30.40;92.10
34095;DHT22;20372;47.080;15.410;2023-06-22T07:53:23;30.30;91.40
34095;DHT22;20372;47.080;15.410;2023-06-22T07:55:49;30.40;91.90
34095;DHT22;20372;47.080;15.410;2023-06-22T07:58:14;30.40;92.20
34095;DHT22;20372;47.080;15.410;2023-06-22T08:00:41;30.40;92.80
34095;DHT22;20372;47.080;15.410;2023-06-22T08:03:06;30.70;93.40
34095;DHT22;20372;47.080;15.410;2023-06-22T08:05:32;30.90;92.80
34095;DHT22;20372;47.080;15.410;2023-06-22T08:07:58;30.80;91.80
34095;DHT22;20372;47.080;15.410;2023-06-22T08:10:24;30.70;91.90
34095;DHT22;20372;47.080;15.410;2023-06-22T08:12:49;30.60;93.30
34095;DHT22;20372;47.080;15.410;2023-06-22T08:15:15;30.10;90.30
34095;DHT22;20372;47.080;15.410;2023-06-22T08:17:41;29.80;93.10
34095;DHT22;20372;47.080;15.410;2023-06-22T08:20:07;29.90;91.10
34095;DHT22;20372;47.080;15.410;2023-06-22T08:22:37;30.10;90.90
34095;DHT22;20372;47.080;15.410;2023-06-22T08:25:03;29.50;92.00
34095;DHT22;20372;47.080;15.410;2023-06-22T08:27:30;29.30;91.20
34095;DHT22;20372;47.080;15.410;2023-06-22T08:30:00;29.30;93.80
34095;DHT22;20372;47.080;15.410;2023-06-22T08:32:27;30.00;93.50
34095;DHT22;20372;47.080;15.410;2023-06-22T08:34:53;30.80;93.40
34095;DHT22;20372;47.080;15.410;2023-06-22T08:37:19;30.70;90.20
34095;DHT22;20372;47.080;15.410;2023-06-22T08:39:45;30.40;92.20
34095;DHT22;20372;47.080;15.410;2023-06-22T08:42:10;30.70;91.10
34095;DHT22;20372;47.080;15.410;2023-06-22T08:44:37;30.80;93.30
34095;DHT22;20372;47.080;15.410;2023-06-22T08:47:02;30.90;91.00
34095;DHT22;20372;47.080;15.410;2023-06-22T08:49:29;30.90;92.50
34095;DHT22;20372;47.080;15.410;2023-06-22T08:51:54;31.20;91.20
34095;DHT22;20372;47.080;15.410;2023-06-22T08:54:22;30.90;90.30
34095;DHT22;20372;47.080;15.410;2023-06-22T08:56:47;30.90;90.20
34095;DHT22;20372;47.080;15.410;2023-06-22T08:59:13;31.20;87.60
34095;DHT22;20372;47.080;15.410;2023-06-22T09:01:39;31.20;90.10
34095;DHT22;20372;47.080;15.410;2023-06-22T09:04:04;31.60;91.80
34095;DHT22;20372;47.080;15.410;2023-06-22T09:06:31;30.70;85.90
34095;DHT22;20372;47.080;15.410;2023-06-22T09:08:57;31.00;92.00
34095;DHT22;20372;47.080;15.410;2023-06-22T09:11:25;31.80;90.40
34095;DHT22;20372;47.080;15.410;2023-06-22T09:13:50;31.80;88.20
34095;DHT22;20372;47.080;15.410;2023-06-22T09:16:17;31.80;90.80
34095;DHT22;20372;47.080;15.410;2023-06-22T09:18:46;31.40;86.40
34095;DHT22;20372;47.080;15.410;2023-06-22T09:21:12;30.50;87.80
34095;DHT22;20372;47.080;15.410;2023-06-22T09:23:37;30.90;93.00
34095;DHT22;20372;47.080;15.410;2023-06-22T09:26:03;31.80;92.10
34095;DHT22;20372;47.080;15.410;2023-06-22T09:28:29;31.50;86.90
34095;DHT22;20372;47.080;15.410;2023-06-22T09:30:55;31.60;89.00
34095;DHT22;20372;47.080;15.410;2023-06-22T09:33:23;31.70;84.80
34095;DHT22;20372;47.080;15.410;2023-06-22T09:35:49;31.60;85.40
34095;DHT22;20372;47.080;15.410;2023-06-22T09:38:16;32.40;91.10
34095;DHT22;20372;47.080;15.410;2023-06-22T09:40:42;32.30;88.60
34095;DHT22;20372;47.080;15.410;2023-06-22T09:43:07;32.60;88.80
34095;DHT22;20372;47.080;15.410;2023-06-22T09:45:33;32.50;89.10
34095;DHT22;20372;47.080;15.410;2023-06-22T09:47:58;31.50;85.40
34095;DHT22;20372;47.080;15.410;2023-06-22T09:50:24;31.60;90.90
34095;DHT22;20372;47.080;15.410;2023-06-22T09:52:50;31.70;90.80
34095;DHT22;20372;47.080;15.410;2023-06-22T09:55:22;31.30;88.10
34095;DHT22;20372;47.080;15.410;2023-06-22T09:57:48;31.00;87.70
34095;DHT22;20372;47.080;15.410;2023-06-22T10:00:17;30.50;90.80
34095;DHT22;20372;47.080;15.410;2023-06-22T10:02:44;30.60;90.90
34095;DHT22;20372;47.080;15.410;2023-06-22T10:05:10;30.80;91.00
34095;DHT22;20372;47.080;15.410;2023-06-22T10:07:35;31.30;92.20
34095;DHT22;20372;47.080;15.410;2023-06-22T10:10:05;31.60;90.70
34095;DHT22;20372;47.080;15.410;2023-06-22T10:12:31;31.30;88.80
34095;DHT22;20372;47.080;15.410;2023-06-22T10:14:57;31.00;90.20
34095;DHT22;20372;47.080;15.410;2023-06-22T10:17:22;30.70;89.20
34095;DHT22;20372;47.080;15.410;2023-06-22T10:19:48;30.70;88.50
34095;DHT22;20372;47.080;15.410;2023-06-22T10:22:13;30.80;90.20
34095;DHT22;20372;47.080;15.410;2023-06-22T10:24:39;30.60;90.20
34095;DHT22;20372;47.080;15.410;2023-06-22T10:27:12;30.60;91.60
34095;DHT22;20372;47.080;15.410;2023-06-22T10:29:39;30.50;90.30
34095;DHT22;20372;47.080;15.410;2023-06-22T10:32:05;30.20;91.40
34095;DHT22;20372;47.080;15.410;2023-06-22T10:34:30;30.20;91.10
34095;DHT22;20372;47.080;15.410;2023-06-22T10:36:56;30.10;90.60
34095;DHT22;20372;47.080;15.410;2023-06-22T10:39:22;29.90;91.40
34095;DHT22;20372;47.080;15.410;2023-06-22T10:41:47;30.00;90.90
34095;DHT22;20372;47.080;15.410;2023-06-22T10:44:13;30.30;91.90
34095;DHT22;20372;47.080;15.410;2023-06-22T10:46:39;30.20;92.00
34095;DHT22;20372;47.080;15.410;2023-06-22T10:49:04;30.40;91.60
34095;DHT22;20372;47.080;15.410;2023-06-22T10:51:30;30.50;91.50
34095;DHT22;20372;47.080;15.410;2023-06-22T10:53:57;30.50;91.20
34095;DHT22;20372;47.080;15.410;2023-06-22T10:56:22;30.20;90.50
34095;DHT22;20372;47.080;15.410;2023-06-22T10:58:48;30.10;91.00
34095;DHT22;20372;47.080;15.410;2023-06-22T11:01:14;30.10;91.00
34095;DHT22;20372;47.080;15.410;2023-06-22T11:03:39;30.20;90.40
34095;DHT22;20372;47.080;15.410;2023-06-22T11:06:05;30.30;91.50
34095;DHT22;20372;47.080;15.410;2023-06-22T11:08:30;30.80;91.60
34095;DHT22;20372;47.080;15.410;2023-06-22T11:10:56;30.90;90.10
34095;DHT22;20372;47.080;15.410;2023-06-22T11:13:22;30.90;90.90
34095;DHT22;20372;47.080;15.410;2023-06-22T11:15:47;31.30;92.60
34095;DHT22;20372;47.080;15.410;2023-06-22T11:18:13;31.20;89.10
34095;DHT22;20372;47.080;15.410;2023-06-22T11:20:38;31.30;89.70
34095;DHT22;20372;47.080;15.410;2023-06-22T11:23:04;31.00;89.60
34095;DHT22;20372;47.080;15.410;2023-06-22T11:25:31;31.50;91.80
34095;DHT22;20372;47.080;15.410;2023-06-22T11:27:57;31.30;89.80
34095;DHT22;20372;47.080;15.410;2023-06-22T11:30:23;31.30;91.10
34095;DHT22;20372;47.080;15.410;2023-06-22T11:32:48;31.40;90.30
34095;DHT22;20372;47.080;15.410;2023-06-22T11:35:14;31.40;91.50
34095;DHT22;20372;47.080;15.410;2023-06-22T11:37:39;31.60;90.80
34095;DHT22;20372;47.080;15.410;2023-06-22T11:40:05;31.30;90.50
34095;DHT22;20372;47.080;15.410;2023-06-22T11:42:34;31.30;91.70
34095;DHT22;20372;47.080;15.410;2023-06-22T11:45:00;31.30;90.40
34095;DHT22;20372;47.080;15.410;2023-06-22T11:47:27;31.00;90.60
34095;DHT22;20372;47.080;15.410;2023-06-22T11:49:52;30.70;90.40
34095;DHT22;20372;47.080;15.410;2023-06-22T11:52:18;30.80;91.00
34095;DHT22;20372;47.080;15.410;2023-06-22T11:54:44;31.10;92.00
34095;DHT22;20372;47.080;15.410;2023-06-22T11:57:11;31.20;90.30
34095;DHT22;20372;47.080;15.410;2023-06-22T11:59:36;31.00;92.10
34095;DHT22;20372;47.080;15.410;2023-06-22T12:02:02;31.20;93.10
34095;DHT22;20372;47.080;15.410;2023-06-22T12:04:29;31.30;91.70
34095;DHT22;20372;47.080;15.410;2023-06-22T12:06:54;31.10;90.40
34095;DHT22;20372;47.080;15.410;2023-06-22T12:09:20;31.00;91.90
34095;DHT22;20372;47.080;15.410;2023-06-22T12:11:45;31.40;92.20
34095;DHT22;20372;47.080;15.410;2023-06-22T12:14:11;31.60;91.60
34095;DHT22;20372;47.080;15.410;2023-06-22T12:16:37;31.80;91.20
34095;DHT22;20372;47.080;15.410;2023-06-22T12:19:03;31.30;90.30
34095;DHT22;20372;47.080;15.410;2023-06-22T12:21:28;30.90;90.90
34095;DHT22;20372;47.080;15.410;2023-06-22T12:23:54;31.10;91.80
34095;DHT22;20372;47.080;15.410;2023-06-22T12:26:19;31.30;91.50
34095;DHT22;20372;47.080;15.410;2023-06-22T12:28:45;30.80;90.90
34095;DHT22;20372;47.080;15.410;2023-06-22T12:31:10;30.70;91.30
34095;DHT22;20372;47.080;15.410;2023-06-22T12:33:36;30.90;91.10
34095;DHT22;20372;47.080;15.410;2023-06-22T12:36:02;30.70;91.10
34095;DHT22;20372;47.080;15.410;2023-06-22T12:38:28;31.00;91.40
34095;DHT22;20372;47.080;15.410;2023-06-22T12:40:54;31.20;91.80
34095;DHT22;20372;47.080;15.410;2023-06-22T12:43:19;31.10;90.60
34095;DHT22;20372;47.080;15.410;2023-06-22T12:45:45;30.60;91.30
34095;DHT22;20372;47.080;15.410;2023-06-22T12:48:11;30.80;91.90
34095;DHT22;20372;47.080;15.410;2023-06-22T12:50:38;30.80;92.50
34095;DHT22;20372;47.080;15.410;2023-06-22T12:53:03;31.00;91.40
34095;DHT22;20372;47.080;15.410;2023-06-22T12:55:29;31.30;91.30
34095;DHT22;20372;47.080;15.410;2023-06-22T12:57:55;31.30;92.10
34095;DHT22;20372;47.080;15.410;2023-06-22T13:00:21;31.30;91.30
34095;DHT22;20372;47.080;15.410;2023-06-22T13:02:46;31.40;92.70
34095;DHT22;20372;47.080;15.410;2023-06-22T13:05:12;31.60;90.60
34095;DHT22;20372;47.080;15.410;2023-06-22T13:07:37;31.10;91.20
34095;DHT22;20372;47.080;15.410;2023-06-22T13:10:03;30.80;90.90
34095;DHT22;20372;47.080;15.410;2023-06-22T13:12:29;30.90;92.20
34095;DHT22;20372;47.080;15.410;2023-06-22T13:14:54;31.20;91.50
34095;DHT22;20372;47.080;15.410;2023-06-22T13:17:20;31.20;92.10
34095;DHT22;20372;47.080;15.410;2023-06-22T13:19:46;31.50;90.90
34095;DHT22;20372;47.080;15.410;2023-06-22T13:24:56;31.40;90.20
34095;DHT22;20372;47.080;15.410;2023-06-22T13:27:22;31.10;90.70
34095;DHT22;20372;47.080;15.410;2023-06-22T13:29:48;31.20;90.90
34095;DHT22;20372;47.080;15.410;2023-06-22T13:32:13;31.00;90.40
34095;DHT22;20372;47.080;15.410;2023-06-22T13:34:39;31.10;91.00
34095;DHT22;20372;47.080;15.410;2023-06-22T13:37:05;31.40;92.10
34095;DHT22;20372;47.080;15.410;2023-06-22T13:39:30;31.50;92.10
34095;DHT22;20372;47.080;15.410;2023-06-22T13:41:57;31.60;91.20
34095;DHT22;20372;47.080;15.410;2023-06-22T13:44:23;31.60;90.60
34095;DHT22;20372;47.080;15.410;2023-06-22T13:46:48;31.50;90.80
34095;DHT22;20372;47.080;15.410;2023-06-22T13:49:14;31.20;90.40
34095;DHT22;20372;47.080;15.410;2023-06-22T13:51:39;31.20;92.20
34095;DHT22;20372;47.080;15.410;2023-06-22T13:54:05;31.40;91.90
34095;DHT22;20372;47.080;15.410;2023-06-22T13:56:31;31.60;90.60
34095;DHT22;20372;47.080;15.410;2023-06-22T13:58:57;31.30;90.30
34095;DHT22;20372;47.080;15.410;2023-06-22T14:01:23;31.20;90.50
34095;DHT22;20372;47.080;15.410;2023-06-22T14:03:49;31.40;90.40
34095;DHT22;20372;47.080;15.410;2023-06-22T14:06:14;31.70;91.00
34095;DHT22;20372;47.080;15.410;2023-06-22T14:08:40;31.50;91.80
34095;DHT22;20372;47.080;15.410;2023-06-22T14:11:05;31.60;91.50
34095;DHT22;20372;47.080;15.410;2023-06-22T14:13:31;31.60;92.00
34095;DHT22;20372;47.080;15.410;2023-06-22T14:15:57;31.50;91.40
34095;DHT22;20372;47.080;15.410;2023-06-22T14:18:23;31.40;92.20
34095;DHT22;20372;47.080;15.410;2023-06-22T14:20:48;31.50;91.50
34095;DHT22;20372;47.080;15.410;2023-06-22T14:23:14;31.50;91.30
34095;DHT22;20372;47.080;15.410;2023-06-22T14:25:40;31.30;91.80
34095;DHT22;20372;47.080;15.410;2023-06-22T14:28:05;31.30;90.60
34095;DHT22;20372;47.080;15.410;2023-06-22T14:30:31;31.20;93.00
34095;DHT22;20372;47.080;15.410;2023-06-22T14:32:57;31.20;92.60
34095;DHT22;20372;47.080;15.410;2023-06-22T14:35:22;31.60;93.40
34095;DHT22;20372;47.080;15.410;2023-06-22T14:37:49;31.70;92.70
34095;DHT22;20372;47.080;15.410;2023-06-22T14:40:15;31.70;92.70
34095;DHT22;20372;47.080;15.410;2023-06-22T14:42:41;31.50;91.70
34095;DHT22;20372;47.080;15.410;2023-06-22T14:45:07;31.30;92.20
34095;DHT22;20372;47.080;15.410;2023-06-22T14:47:32;31.30;91.60
34095;DHT22;20372;47.080;15.410;2023-06-22T14:49:58;31.40;92.30
34095;DHT22;20372;47.080;15.410;2023-06-22T14:52:25;31.40;93.10
34095;DHT22;20372;47.080;15.410;2023-06-22T14:54:52;31.30;92.40
34095;DHT22;20372;47.080;15.410;2023-06-22T14:57:18;31.20;92.00
34095;DHT22;20372;47.080;15.410;2023-06-22T14:59:48;31.10;93.10
34095;DHT22;20372;47.080;15.410;2023-06-22T15:02:14;31.20;92.10
34095;DHT22;20372;47.080;15.410;2023-06-22T15:04:40;31.20;91.90
34095;DHT22;20372;47.080;15.410;2023-06-22T15:07:06;31.30;91.80
34095;DHT22;20372;47.080;15.410;2023-06-22T15:09:31;31.30;92.30
34095;DHT22;20372;47.080;15.410;2023-06-22T15:11:57;31.50;93.00
34095;DHT22;20372;47.080;15.410;2023-06-22T15:14:23;31.40;92.50
34095;DHT22;20372;47.080;15.410;2023-06-22T15:16:49;31.20;91.10
34095;DHT22;20372;47.080;15.410;2023-06-22T15:19:15;31.20;92.10
34095;DHT22;20372;47.080;15.410;2023-06-22T15:21:41;31.10;91.60